Terminal Aerodrome Forecast
Issued by NWS

Home | Current Version | Previous Version | Text Only | Print | Product List | Glossary On
Versions: 1 2 3 4 5 6 7 8 9 10 11 12 13 14 15 16 17 18 19 20 21 22 23 24 25 26 27 28 29 30 31 32 33 34 35 36 37
388
FTPA31 PHFO 212340
TAFMDY
TAF
PMDY 212340Z 2200/2224 12010KT P6SM SCT020 BKN035
     FM220800 17017KT P6SM SCT018 BKN045
     FM222200 19018G28KT 4SM -SHRA BR SCT015 BKN025 OVC040=

USA.gov is the U.S. government's official web portal to all federal, state and local government web resources and services.